Time;durP1;ratioP1;P1;durP2;ratioP2;P2;SDS_P1;SDS_P2;PMS_P1;PMS_P2;Temp;Humidity;BMP_temperature;BMP_pressure;BME280_temperature;BME280_humidity;BME280_pressure;Samples;Min_cycle;Max_cycle;Signal;HPM_P1;HPM_P2
2024/03/04 00:01:45;;;;;;;33.35;24.27;;;;;;;8.76;68.35;94283.13;4244777;27;20131;-69
2024/03/04 00:03:47;;;;;;;39.15;25.75;;;;;;;8.74;68.75;94282.47;4244423;27;20069;-75
2024/03/04 00:05:50;;;;;;;32.90;24.42;;;;;;;8.73;68.83;94280.84;4244645;27;20105;-70
2024/03/04 00:07:52;;;;;;;32.50;23.20;;;;;;;8.74;68.74;94279.84;4244321;27;20512;-70
2024/03/04 00:09:54;;;;;;;34.78;24.77;;;;;;;8.74;68.56;94274.63;4224331;28;20054;-69
2024/03/04 00:11:56;;;;;;;31.42;24.00;;;;;;;8.75;69.17;94276.25;4243937;27;20414;-70
2024/03/04 00:13:58;;;;;;;33.63;24.35;;;;;;;8.75;69.29;94276.25;4244470;27;20054;-71
2024/03/04 00:16:02;;;;;;;36.45;25.02;;;;;;;8.76;69.05;94269.25;4242864;27;20425;-69
2024/03/04 00:18:04;;;;;;;33.25;24.63;;;;;;;8.78;68.91;94265.50;4232335;27;20039;-70
2024/03/04 00:20:09;;;;;;;35.10;24.95;;;;;;;8.76;68.42;94275.28;4244693;27;20117;-69
2024/03/04 00:22:11;;;;;;;34.72;24.88;;;;;;;8.70;69.08;94260.25;4244095;27;20202;-70
2024/03/04 00:24:13;;;;;;;34.53;25.45;;;;;;;8.69;68.92;94268.22;4240333;27;20070;-68
2024/03/04 00:26:15;;;;;;;39.60;26.40;;;;;;;8.69;69.30;94265.63;4236745;27;20501;-69
2024/03/04 00:28:17;;;;;;;34.40;25.58;;;;;;;8.67;69.29;94270.19;4243049;27;20043;-69
2024/03/04 00:30:19;;;;;;;37.03;26.02;;;;;;;8.67;69.07;94259.72;4243504;27;20552;-69
2024/03/04 00:32:21;;;;;;;34.58;25.98;;;;;;;8.66;69.30;94263.34;4241978;27;20051;-68
2024/03/04 00:34:23;;;;;;;38.58;25.55;;;;;;;8.66;69.67;94251.09;4226032;28;20063;-69
2024/03/04 00:36:26;;;;;;;34.78;25.42;;;;;;;8.66;69.43;94255.50;4235307;27;20104;-68
2024/03/04 00:38:28;;;;;;;37.55;25.95;;;;;;;8.67;69.65;94249.28;4243701;27;20364;-68
2024/03/04 00:40:31;;;;;;;34.30;25.73;;;;;;;8.66;69.21;94251.09;4243048;27;20110;-68
2024/03/04 00:42:33;;;;;;;35.03;25.90;;;;;;;8.68;68.96;94256.16;4225302;28;20043;-70
2024/03/04 00:44:34;;;;;;;35.20;26.20;;;;;;;8.66;69.22;94250.28;4238684;27;20074;-69
2024/03/04 00:46:41;;;;;;;34.53;25.60;;;;;;;8.65;69.28;94256.47;4243008;27;20082;-67
2024/03/04 00:48:44;;;;;;;38.13;26.77;;;;;;;8.64;68.77;94255.66;4218502;28;20064;-69
2024/03/04 00:50:46;;;;;;;36.75;24.63;;;;;;;8.57;69.30;94252.03;4237935;27;20058;-69
2024/03/04 00:52:48;;;;;;;36.10;25.67;;;;;;;8.53;69.14;94248.91;4219667;28;20055;-69
2024/03/04 00:54:50;;;;;;;39.00;26.30;;;;;;;8.50;70.00;94240.59;4241857;27;20513;-70
2024/03/04 00:56:52;;;;;;;37.70;25.45;;;;;;;8.52;69.18;94239.47;4233339;27;20063;-68
2024/03/04 00:58:54;;;;;;;38.28;27.70;;;;;;;8.51;69.37;94245.66;4224788;28;20476;-69
2024/03/04 01:00:57;;;;;;;34.70;27.00;;;;;;;8.48;69.60;94240.75;4230759;27;20055;-69
2024/03/04 01:03:00;;;;;;;41.17;26.27;;;;;;;8.48;69.36;94240.75;4244281;27;20092;-70
2024/03/04 01:05:02;;;;;;;36.47;26.20;;;;;;;8.48;69.30;94243.38;4242513;27;20091;-68
2024/03/04 01:07:04;;;;;;;33.92;24.33;;;;;;;8.45;70.13;94251.50;4213551;28;20048;-68
2024/03/04 01:09:06;;;;;;;36.35;25.58;;;;;;;8.44;69.85;94244.66;4237612;27;20074;-67
2024/03/04 01:11:08;;;;;;;34.83;25.30;;;;;;;8.44;69.01;94249.06;4240196;27;20073;-69
2024/03/04 01:13:11;;;;;;;37.40;26.38;;;;;;;8.42;69.53;94251.81;4240249;27;20198;-67
2024/03/04 01:15:13;;;;;;;37.83;24.97;;;;;;;8.37;69.94;94247.03;4221666;28;20055;-69
2024/03/04 01:17:16;;;;;;;32.78;24.65;;;;;;;8.33;69.59;94250.13;4236499;27;20169;-69
2024/03/04 01:19:20;;;;;;;37.10;24.73;;;;;;;8.32;69.82;94251.09;4243225;27;20049;-71
2024/03/04 01:21:22;;;;;;;33.72;25.85;;;;;;;8.30;69.91;94247.81;4240725;27;20051;-71
2024/03/04 01:23:23;;;;;;;36.83;25.88;;;;;;;8.29;69.63;94252.22;4234356;27;20062;-70
2024/03/04 01:25:26;;;;;;;35.72;26.08;;;;;;;8.18;69.85;94248.09;4237791;27;20046;-67
2024/03/04 01:27:27;;;;;;;33.50;25.08;;;;;;;8.15;70.06;94251.03;4239199;27;20491;-68
2024/03/04 01:29:29;;;;;;;34.80;25.77;;;;;;;8.14;69.96;94251.97;4239146;27;20053;-68
2024/03/04 01:31:32;;;;;;;32.58;25.00;;;;;;;8.08;69.76;94255.19;4231939;27;21299;-69
2024/03/04 01:33:34;;;;;;;32.97;24.02;;;;;;;8.11;70.36;94256.69;4243152;27;20051;-69
2024/03/04 01:35:36;;;;;;;32.85;23.42;;;;;;;8.12;69.54;94260.94;4242899;27;20050;-68
2024/03/04 01:37:42;;;;;;;31.55;23.52;;;;;;;8.13;69.95;94258.19;4241674;27;20118;-69
2024/03/04 01:39:44;;;;;;;35.58;24.92;;;;;;;8.14;70.03;94253.78;4239282;27;20039;-69
2024/03/04 01:41:46;;;;;;;32.22;23.83;;;;;;;8.11;70.15;94252.31;4230518;27;20130;-69
2024/03/04 01:43:50;;;;;;;35.55;23.95;;;;;;;8.10;70.36;94255.88;4232297;27;20600;-68
2024/03/04 01:45:52;;;;;;;33.58;24.80;;;;;;;8.12;70.13;94259.13;4243048;27;20478;-70
2024/03/04 01:47:58;;;;;;;36.35;25.05;;;;;;;8.10;69.86;94257.66;4243173;27;20549;-70
2024/03/04 01:50:00;;;;;;;32.80;24.38;;;;;;;8.09;69.64;94256.84;4243349;27;20039;-70
2024/03/04 01:52:05;;;;;;;34.40;24.92;;;;;;;8.10;70.21;94266.31;4242903;27;20092;-69
2024/03/04 01:54:07;;;;;;;34.25;25.67;;;;;;;8.06;69.94;94256.34;4238051;27;20139;-69
2024/03/04 01:56:09;;;;;;;33.67;23.85;;;;;;;8.08;69.56;94264.81;4228861;27;20065;-71
2024/03/04 01:58:12;;;;;;;33.97;24.52;;;;;;;8.04;69.63;94261.69;4239426;27;20047;-70
2024/03/04 02:00:15;;;;;;;33.47;25.77;;;;;;;8.00;69.39;94268.19;4233885;27;20075;-68
2024/03/04 02:02:18;;;;;;;34.60;25.05;;;;;;;8.02;69.55;94265.44;4232167;27;20510;-68
2024/03/04 02:04:20;;;;;;;32.50;25.05;;;;;;;8.03;69.43;94265.28;4236616;27;20161;-70
2024/03/04 02:06:22;;;;;;;34.10;23.90;;;;;;;8.03;69.72;94261.88;4202347;28;20139;-68
2024/03/04 02:08:24;;;;;;;41.25;25.25;;;;;;;8.03;69.64;94267.09;4224669;28;20131;-69
2024/03/04 02:10:26;;;;;;;34.80;26.23;;;;;;;8.03;69.55;94267.91;4240664;28;20050;-69
2024/03/04 02:12:28;;;;;;;36.53;26.70;;;;;;;7.99;69.67;94267.38;4234445;28;20047;-69
2024/03/04 02:14:31;;;;;;;39.25;26.25;;;;;;;7.99;70.08;94266.56;4243137;28;20067;-69
2024/03/04 02:16:33;;;;;;;38.08;26.77;;;;;;;8.00;70.01;94262.97;4241866;28;20060;-69
2024/03/04 02:18:36;;;;;;;36.92;26.65;;;;;;;7.99;70.34;94261.34;4242268;28;20055;-69
2024/03/04 02:20:39;;;;;;;38.83;27.83;;;;;;;7.98;69.85;94264.94;4239287;28;20070;-70
2024/03/04 02:22:41;;;;;;;36.60;25.43;;;;;;;7.98;70.08;94265.75;4242400;27;20080;-71
2024/03/04 02:24:44;;;;;;;40.40;26.03;;;;;;;7.97;70.25;94265.91;4220140;28;20056;-69
2024/03/04 02:26:46;;;;;;;34.95;25.63;;;;;;;7.94;70.65;94269.63;4238022;27;20071;-69
2024/03/04 02:28:48;;;;;;;37.28;26.25;;;;;;;7.95;70.56;94273.06;4244285;27;20508;-68
2024/03/04 02:30:51;;;;;;;35.67;25.73;;;;;;;7.92;70.09;94270.78;4228535;27;20055;-71
2024/03/04 02:32:52;;;;;;;38.55;25.75;;;;;;;7.88;71.16;94266.84;4222795;28;20167;-69
2024/03/04 02:34:55;;;;;;;36.20;26.08;;;;;;;7.89;70.74;94278.88;4224316;28;20063;-70
2024/03/04 02:36:58;;;;;;;34.70;25.42;;;;;;;7.93;70.86;94277.63;4240269;27;20261;-69
2024/03/04 02:39:03;;;;;;;33.47;25.60;;;;;;;7.87;70.74;94275.59;4224082;28;20396;-68
2024/03/04 02:41:05;;;;;;;38.95;26.27;;;;;;;7.84;70.67;94271.53;4239127;27;20266;-68
2024/03/04 02:43:07;;;;;;;33.63;24.02;;;;;;;7.82;70.71;94277.88;4245695;27;20162;-69
2024/03/04 02:45:09;;;;;;;37.25;26.13;;;;;;;7.83;70.71;94279.50;4245614;27;20401;-69
2024/03/04 02:47:11;;;;;;;36.13;25.70;;;;;;;7.82;70.95;94275.25;4243402;27;20442;-69
2024/03/04 02:49:13;;;;;;;34.60;25.83;;;;;;;7.83;71.00;94277.72;4235176;27;20080;-68
2024/03/04 02:51:14;;;;;;;36.08;27.00;;;;;;;7.75;70.89;94273.25;4236046;27;20043;-70
2024/03/04 02:53:16;;;;;;;39.55;27.98;;;;;;;7.67;70.88;94278.41;4236354;27;20075;-69
2024/03/04 02:55:18;;;;;;;39.95;27.25;;;;;;;7.56;71.87;94281.25;4241601;27;20498;-69
2024/03/04 02:57:20;;;;;;;44.63;27.55;;;;;;;7.52;72.20;94278.13;4237181;27;20047;-70
2024/03/04 02:59:22;;;;;;;38.17;26.55;;;;;;;7.60;71.88;94285.22;4224288;28;20731;-69
2024/03/04 03:01:26;;;;;;;36.42;27.67;;;;;;;7.62;71.38;94280.66;4237127;27;20054;-68
2024/03/04 03:03:28;;;;;;;36.70;26.05;;;;;;;7.62;71.28;94287.66;4245116;27;20104;-69
2024/03/04 03:05:30;;;;;;;34.58;27.38;;;;;;;7.65;71.41;94289.97;4235935;27;20063;-71
2024/03/04 03:07:32;;;;;;;34.53;25.83;;;;;;;7.70;71.48;94287.72;4230752;27;20536;-69
2024/03/04 03:09:34;;;;;;;35.25;26.23;;;;;;;7.66;71.08;94281.16;4245809;27;20054;-69
2024/03/04 03:11:35;;;;;;;36.05;26.65;;;;;;;7.68;71.35;94280.06;4242179;27;20105;-70
2024/03/04 03:13:37;;;;;;;36.15;25.98;;;;;;;7.73;71.41;94287.41;4243883;27;20616;-70
2024/03/04 03:15:41;;;;;;;33.60;25.13;;;;;;;7.79;71.12;94286.81;4245220;27;20051;-68
2024/03/04 03:17:43;;;;;;;34.65;25.80;;;;;;;7.80;71.22;94278.81;4245422;27;20076;-70
2024/03/04 03:19:45;;;;;;;32.47;24.60;;;;;;;7.80;71.09;94289.25;4245180;27;20047;-70
2024/03/04 03:21:47;;;;;;;36.13;24.85;;;;;;;7.79;70.61;94287.63;4242393;27;20541;-69
2024/03/04 03:23:50;;;;;;;36.65;25.63;;;;;;;7.78;70.52;94291.19;4236590;27;20043;-69
2024/03/04 03:25:52;;;;;;;32.83;24.15;;;;;;;7.79;70.59;94295.47;4242505;27;20047;-68
2024/03/04 03:27:54;;;;;;;33.10;24.25;;;;;;;7.75;70.23;94290.69;4243507;27;20070;-68
2024/03/04 03:29:56;;;;;;;37.22;24.75;;;;;;;7.69;70.35;94296.50;4245431;27;20078;-69
2024/03/04 03:31:58;;;;;;;31.35;23.67;;;;;;;7.65;70.29;94296.00;4240345;27;20062;-70
2024/03/04 03:34:00;;;;;;;28.80;21.75;;;;;;;7.67;70.63;94296.66;4233478;27;20058;-70
2024/03/04 03:36:06;;;;;;;30.20;21.90;;;;;;;7.65;70.84;94297.78;4233362;27;21020;-68
2024/03/04 03:38:07;;;;;;;31.83;22.25;;;;;;;7.63;70.08;94295.31;4214709;28;20043;-70
2024/03/04 03:40:10;;;;;;;30.63;22.88;;;;;;;7.64;70.28;94299.56;4233376;27;20074;-69
2024/03/04 03:42:12;;;;;;;31.15;22.90;;;;;;;7.64;70.34;94304.78;4229755;27;20152;-69
2024/03/04 03:44:14;;;;;;;31.88;23.75;;;;;;;7.57;69.85;94299.38;4242270;27;20059;-68
2024/03/04 03:46:16;;;;;;;32.47;23.52;;;;;;;7.46;70.21;94310.00;4235133;27;20073;-69
2024/03/04 03:48:18;;;;;;;34.10;22.55;;;;;;;7.35;70.16;94307.63;4236226;27;20112;-69
2024/03/04 03:50:19;;;;;;;30.25;22.00;;;;;;;7.27;71.21;94302.34;4241300;27;20057;-68
2024/03/04 03:52:21;;;;;;;29.23;22.33;;;;;;;7.27;71.29;94300.56;4243857;27;20387;-68
2024/03/04 03:54:23;;;;;;;29.63;22.65;;;;;;;7.30;71.12;94305.47;4245041;27;20131;-69
2024/03/04 03:56:25;;;;;;;28.10;21.75;;;;;;;7.33;71.04;94309.56;4239600;27;20062;-71
2024/03/04 03:58:27;;;;;;;28.30;21.10;;;;;;;7.33;70.79;94307.75;4240598;27;20039;-70
2024/03/04 04:00:30;;;;;;;31.55;20.50;;;;;;;7.33;70.75;94305.16;4243816;27;20039;-70
2024/03/04 04:02:34;;;;;;;24.55;19.00;;;;;;;7.36;70.67;94310.09;4244514;27;20043;-71
2024/03/04 04:04:36;;;;;;;26.33;19.05;;;;;;;7.35;70.77;94308.44;4244398;27;20092;-70
2024/03/04 04:06:38;;;;;;;24.95;19.27;;;;;;;7.38;70.32;94309.94;4231525;27;20047;-69
2024/03/04 04:08:41;;;;;;;26.48;19.58;;;;;;;7.39;69.98;94307.16;4241129;27;20047;-69
2024/03/04 04:10:43;;;;;;;28.67;20.90;;;;;;;7.41;70.58;94307.03;4237045;27;20420;-68
2024/03/04 04:12:45;;;;;;;23.58;18.95;;;;;;;7.42;70.35;94306.09;4224839;28;20052;-70
2024/03/04 04:14:48;;;;;;;26.40;18.90;;;;;;;7.41;70.02;94307.03;4240989;27;20464;-70
2024/03/04 04:16:51;;;;;;;28.60;20.23;;;;;;;7.39;70.04;94307.16;4240773;27;20043;-70
2024/03/04 04:18:53;;;;;;;28.77;19.50;;;;;;;7.39;70.37;94307.16;4238320;27;20510;-69
2024/03/04 04:20:55;;;;;;;25.92;18.67;;;;;;;7.41;70.51;94304.44;4244381;27;20055;-71
2024/03/04 04:22:58;;;;;;;26.83;19.38;;;;;;;7.39;70.41;94304.56;4225075;28;20048;-69
2024/03/04 04:24:59;;;;;;;26.05;19.45;;;;;;;7.38;70.21;94313.38;4238526;27;20470;-69
2024/03/04 04:27:02;;;;;;;23.23;19.00;;;;;;;7.38;70.65;94308.16;4244232;27;20043;-69
2024/03/04 04:29:04;;;;;;;24.58;18.48;;;;;;;7.41;69.76;94309.63;4244211;27;20090;-71
2024/03/04 04:31:06;;;;;;;26.50;18.90;;;;;;;7.42;69.94;94313.06;4240226;27;20130;-71
2024/03/04 04:33:08;;;;;;;23.80;18.30;;;;;;;7.41;70.29;94314.84;4239676;27;20096;-69
2024/03/04 04:35:10;;;;;;;23.48;17.45;;;;;;;7.35;69.61;94316.25;4237582;27;20518;-72
2024/03/04 04:37:14;;;;;;;26.60;18.08;;;;;;;7.29;70.06;94321.25;4237459;27;20047;-69
2024/03/04 04:39:17;;;;;;;26.05;18.23;;;;;;;7.30;69.77;94310.69;4241671;27;20043;-67
2024/03/04 04:41:18;;;;;;;24.52;18.05;;;;;;;7.32;70.09;94323.56;4244232;27;20046;-68
2024/03/04 04:43:20;;;;;;;24.38;17.35;;;;;;;7.28;70.09;94323.03;4239732;27;20048;-69
2024/03/04 04:45:26;;;;;;;23.38;16.45;;;;;;;7.30;69.76;94318.50;4241394;27;20126;-70
2024/03/04 04:47:29;;;;;;;22.42;17.45;;;;;;;7.29;69.95;94322.09;4239753;27;20047;-71
2024/03/04 04:49:31;;;;;;;23.37;17.03;;;;;;;7.29;69.83;94318.63;4219647;27;20228;-69
2024/03/04 04:51:33;;;;;;;27.95;18.35;;;;;;;7.23;70.10;94320.06;4234393;27;20297;-70
2024/03/04 04:53:35;;;;;;;22.17;16.45;;;;;;;7.27;70.42;94315.34;4240242;27;20556;-67
2024/03/04 04:55:36;;;;;;;25.02;17.73;;;;;;;7.29;69.91;94327.28;4240073;27;20546;-69
2024/03/04 04:57:38;;;;;;;22.98;17.40;;;;;;;7.30;69.88;94323.72;4239827;27;20116;-69
2024/03/04 04:59:40;;;;;;;24.48;17.77;;;;;;;7.29;70.03;94324.69;4243262;27;20043;-69
2024/03/04 05:01:43;;;;;;;23.20;17.45;;;;;;;7.30;69.98;94328.91;4218500;28;20467;-68
2024/03/04 05:03:45;;;;;;;26.20;17.88;;;;;;;7.32;70.87;94324.38;4225733;28;20537;-70
2024/03/04 05:06:14;;;;;;;27.02;18.33;;;;;;;7.36;70.75;94323.13;4225597;27;20063;-69
2024/03/04 05:08:17;;;;;;;25.00;17.88;;;;;;;7.36;70.11;94328.34;4242189;27;20051;-69
2024/03/04 05:10:19;;;;;;;29.88;17.98;;;;;;;7.35;69.96;94331.88;4219524;27;20078;-70
2024/03/04 05:12:22;;;;;;;25.98;19.30;;;;;;;7.35;70.07;94334.50;4217593;28;20071;-69
2024/03/04 05:14:23;;;;;;;25.42;18.38;;;;;;;7.35;69.92;94333.69;4239821;27;20073;-69
2024/03/04 05:16:25;;;;;;;27.17;18.20;;;;;;;7.28;70.48;94337.84;4241277;27;20051;-70
2024/03/04 05:18:27;;;;;;;28.10;17.75;;;;;;;7.32;70.78;94337.41;4242560;27;20107;-69
2024/03/04 05:20:29;;;;;;;24.70;17.70;;;;;;;7.38;70.85;94338.63;4243656;27;20126;-69
2024/03/04 05:22:41;;;;;;;23.00;16.10;;;;;;;7.38;69.62;94344.63;4209324;28;20087;-70
2024/03/04 05:24:44;;;;;;;20.27;15.60;;;;;;;7.39;69.83;94345.44;4242587;27;20077;-72
2024/03/04 05:26:46;;;;;;;24.90;17.40;;;;;;;7.45;70.10;94346.66;4209049;28;20408;-69
2024/03/04 05:28:48;;;;;;;23.40;16.38;;;;;;;7.49;69.14;94348.00;4242755;27;20059;-72
2024/03/04 05:30:50;;;;;;;22.42;17.17;;;;;;;7.50;68.98;94345.22;4219377;28;20052;-70
2024/03/04 05:32:52;;;;;;;22.25;17.05;;;;;;;7.55;69.88;94349.97;4215101;28;20062;-70
2024/03/04 05:34:54;;;;;;;24.88;16.52;;;;;;;7.61;69.07;94341.56;4233748;27;20050;-70
2024/03/04 05:36:56;;;;;;;22.58;16.83;;;;;;;7.65;69.18;94348.13;4242089;27;20407;-68
2024/03/04 05:38:58;;;;;;;21.33;15.55;;;;;;;7.69;68.95;94351.28;4239287;27;20131;-69
2024/03/04 05:41:00;;;;;;;23.42;16.17;;;;;;;7.74;68.69;94346.41;4235075;27;20085;-69
2024/03/04 05:43:03;;;;;;;25.08;16.13;;;;;;;7.84;68.65;94348.94;4237391;27;20047;-70
2024/03/04 05:45:12;;;;;;;22.33;17.17;;;;;;;7.88;67.97;94348.50;4236610;27;20484;-69
2024/03/04 05:47:14;;;;;;;22.40;16.15;;;;;;;7.94;68.53;94347.06;4223829;28;20729;-70
2024/03/04 05:49:16;;;;;;;21.13;15.85;;;;;;;7.99;68.56;94348.25;4241988;27;20039;-70
2024/03/04 05:51:18;;;;;;;25.17;17.13;;;;;;;8.01;68.88;94350.72;4241337;27;20266;-69
2024/03/04 05:53:21;;;;;;;25.17;17.58;;;;;;;8.02;68.30;94348.91;4241170;27;20074;-69
2024/03/04 05:55:23;;;;;;;22.98;16.00;;;;;;;8.06;68.46;94353.66;4242273;27;20555;-70
2024/03/04 05:57:26;;;;;;;24.80;17.38;;;;;;;8.16;68.41;94357.00;4240867;27;20059;-71
2024/03/04 05:59:27;;;;;;;26.60;16.30;;;;;;;8.25;68.28;94351.84;4238227;27;20058;-68
2024/03/04 06:01:32;;;;;;;22.75;17.48;;;;;;;8.30;68.01;94352.19;4243457;27;20051;-70
2024/03/04 06:03:34;;;;;;;27.85;17.30;;;;;;;8.31;67.60;94353.84;4241100;27;20263;-72
2024/03/04 06:05:35;;;;;;;24.42;18.00;;;;;;;8.33;67.55;94352.72;4238134;27;20050;-71
2024/03/04 06:07:38;;;;;;;22.77;17.85;;;;;;;8.39;66.98;94348.69;4224377;28;20608;-71
2024/03/04 06:09:40;;;;;;;23.98;17.13;;;;;;;8.48;67.84;94350.41;4235817;27;20051;-70
2024/03/04 06:11:42;;;;;;;24.80;16.92;;;;;;;8.57;67.50;94346.84;4241375;27;20130;-71
2024/03/04 06:13:44;;;;;;;25.05;17.58;;;;;;;8.60;66.79;94343.94;4242108;28;20137;-70
2024/03/04 06:15:46;;;;;;;25.02;17.92;;;;;;;8.65;66.67;94346.09;4223845;28;20102;-70
2024/03/04 06:17:48;;;;;;;26.23;17.70;;;;;;;8.72;66.42;94348.88;4242287;28;20051;-70
2024/03/04 06:19:50;;;;;;;29.70;19.73;;;;;;;8.82;66.73;94345.19;4241418;28;20043;-68
2024/03/04 06:21:52;;;;;;;27.13;19.25;;;;;;;8.92;66.31;94336.38;4223545;28;20074;-68
2024/03/04 06:24:08;;;;;;;28.73;19.63;;;;;;;9.03;66.09;94343.94;4218186;28;20043;-72
2024/03/04 06:26:11;;;;;;;26.88;20.95;;;;;;;9.02;66.04;94337.09;4240241;28;20368;-72
2024/03/04 06:28:13;;;;;;;36.40;21.15;;;;;;;9.06;65.93;94345.44;4223715;28;20503;-71
2024/03/04 06:30:16;;;;;;;32.10;21.27;;;;;;;9.11;66.07;94340.53;4216671;28;20043;-71
2024/03/04 06:32:17;;;;;;;34.45;20.80;;;;;;;9.16;65.35;94344.31;4216992;28;20055;-68
2024/03/04 06:34:20;;;;;;;27.15;20.67;;;;;;;9.23;65.64;94340.09;4238664;28;20459;-69
2024/03/04 06:36:23;;;;;;;28.33;20.42;;;;;;;9.28;66.04;94342.22;4224992;28;20079;-71
2024/03/04 06:38:25;;;;;;;27.75;20.20;;;;;;;9.28;65.56;94339.59;4241989;28;20043;-71
2024/03/04 06:40:31;;;;;;;28.33;20.33;;;;;;;9.35;65.57;94345.81;4241863;28;20162;-73
2024/03/04 06:42:33;;;;;;;25.92;19.88;;;;;;;9.43;65.68;94335.38;4239809;28;20073;-69
2024/03/04 06:44:36;;;;;;;29.92;20.48;;;;;;;9.49;65.44;94327.91;4224093;28;20123;-70
2024/03/04 06:46:38;;;;;;;27.95;20.90;;;;;;;9.52;64.96;94336.22;4233437;28;20075;-70
2024/03/04 06:48:40;;;;;;;26.92;20.45;;;;;;;9.55;65.37;94333.28;4238875;28;20112;-69
2024/03/04 06:50:42;;;;;;;29.92;20.45;;;;;;;9.64;65.22;94332.31;4230747;28;20051;-67
2024/03/04 06:52:44;;;;;;;28.73;20.13;;;;;;;9.74;65.35;94334.75;4222424;28;20467;-70
2024/03/04 06:54:48;;;;;;;29.90;19.63;;;;;;;9.73;64.92;94333.13;4232976;28;20050;-71
2024/03/04 06:56:50;;;;;;;28.77;19.15;;;;;;;9.83;65.11;94330.38;4241815;28;20051;-70
2024/03/04 06:58:52;;;;;;;27.65;18.40;;;;;;;9.88;64.37;94337.72;4239175;28;20044;-70
2024/03/04 07:00:54;;;;;;;25.27;17.90;;;;;;;9.89;64.16;94345.41;4235547;28;20094;-72
2024/03/04 07:02:56;;;;;;;21.63;17.20;;;;;;;9.95;64.24;94338.69;4242395;28;20039;-69
2024/03/04 07:04:58;;;;;;;22.88;17.05;;;;;;;10.00;63.79;94336.41;4237119;28;20164;-70
2024/03/04 07:07:00;;;;;;;24.33;17.92;;;;;;;9.97;62.78;94339.34;4206349;28;20055;-70
2024/03/04 07:09:03;;;;;;;19.48;15.93;;;;;;;10.03;63.73;94341.31;4212773;28;20587;-69
2024/03/04 07:11:05;;;;;;;22.95;16.70;;;;;;;10.12;63.00;94329.03;4222443;28;20059;-72
2024/03/04 07:13:07;;;;;;;23.02;15.85;;;;;;;10.21;63.38;94336.72;4241161;27;20380;-70
2024/03/04 07:15:09;;;;;;;21.27;16.23;;;;;;;10.29;63.23;94333.31;4235432;27;20043;-70
2024/03/04 07:17:11;;;;;;;22.92;16.40;;;;;;;10.35;63.03;94335.25;4244690;27;20046;-67
2024/03/04 07:19:13;;;;;;;24.55;16.70;;;;;;;10.46;62.44;94331.47;4244137;27;20468;-69
2024/03/04 07:21:15;;;;;;;21.75;16.02;;;;;;;10.36;62.29;94328.22;4241321;27;20051;-70
2024/03/04 07:23:17;;;;;;;25.35;17.45;;;;;;;10.31;62.11;94331.34;4245115;27;20463;-71
2024/03/04 07:25:19;;;;;;;19.25;15.40;;;;;;;10.42;62.11;94332.78;4225991;28;20063;-71
2024/03/04 07:27:21;;;;;;;24.80;15.75;;;;;;;10.33;61.86;94333.81;4225889;28;20134;-68
2024/03/04 07:29:23;;;;;;;24.40;16.63;;;;;;;10.35;62.29;94335.25;4244588;27;20047;-70
2024/03/04 07:31:39;;;;;;;22.30;15.65;;;;;;;10.37;61.71;94337.72;4236317;27;20094;-70
2024/03/04 07:33:42;;;;;;;23.95;15.82;;;;;;;10.43;62.32;94337.88;4244457;27;20046;-72
2024/03/04 07:35:44;;;;;;;23.08;16.35;;;;;;;10.62;61.83;94333.22;4239251;27;20150;-70
2024/03/04 07:37:46;;;;;;;22.30;16.23;;;;;;;10.74;61.04;94325.84;4236824;27;20079;-69
2024/03/04 07:39:48;;;;;;;27.05;16.60;;;;;;;10.22;61.38;94335.75;4240268;27;20089;-69
2024/03/04 07:41:50;;;;;;;23.52;17.00;;;;;;;10.16;62.16;94331.16;4243910;27;20051;-70
2024/03/04 07:43:52;;;;;;;23.55;16.67;;;;;;;10.33;62.25;94339.03;4243748;27;20054;-68
2024/03/04 07:45:54;;;;;;;23.00;16.10;;;;;;;10.46;61.84;94334.09;4238423;27;20047;-70
2024/03/04 07:47:56;;;;;;;23.92;15.60;;;;;;;10.47;61.90;94335.72;4238778;27;20093;-70
2024/03/04 07:49:58;;;;;;;26.92;17.95;;;;;;;10.56;61.88;94337.34;4242451;27;20039;-71
2024/03/04 07:52:00;;;;;;;26.58;18.20;;;;;;;10.52;61.17;94333.44;4238827;27;20131;-70
2024/03/04 07:54:04;;;;;;;25.08;16.50;;;;;;;10.36;61.74;94331.66;4241303;27;20127;-72
2024/03/04 07:56:08;;;;;;;21.08;17.33;;;;;;;10.56;62.21;94328.66;4242062;27;20054;-71
2024/03/04 07:58:10;;;;;;;22.48;16.90;;;;;;;10.74;60.94;94323.22;4229002;27;20058;-70
2024/03/04 08:00:15;;;;;;;23.80;16.88;;;;;;;10.73;61.29;94321.56;4218794;27;20118;-71
2024/03/04 08:02:17;;;;;;;24.10;16.65;;;;;;;10.75;60.57;94330.88;4222579;28;20043;-69
2024/03/04 08:04:20;;;;;;;26.80;17.08;;;;;;;10.96;60.95;94332.94;4237715;27;20498;-71
2024/03/04 08:06:22;;;;;;;22.38;16.27;;;;;;;11.22;60.81;94334.47;4224362;28;20121;-72
2024/03/04 08:08:24;;;;;;;24.77;17.48;;;;;;;11.38;59.51;94325.69;4243679;27;20058;-71
2024/03/04 08:10:26;;;;;;;23.45;16.15;;;;;;;11.50;59.01;94328.75;4239427;27;20077;-69
2024/03/04 08:12:28;;;;;;;26.95;16.55;;;;;;;11.57;59.08;94317.41;4244173;27;20061;-71
2024/03/04 08:14:30;;;;;;;24.20;17.55;;;;;;;11.31;58.90;94317.69;4241077;27;20443;-69
2024/03/04 08:16:32;;;;;;;23.30;17.48;;;;;;;10.72;59.68;94320.75;4243109;27;20515;-71
2024/03/04 08:18:34;;;;;;;26.83;16.35;;;;;;;10.85;60.22;94309.75;4244444;27;20451;-71
2024/03/04 08:20:36;;;;;;;25.02;17.35;;;;;;;10.95;59.94;94314.75;4244024;27;20046;-71
2024/03/04 08:22:38;;;;;;;25.38;18.42;;;;;;;10.84;60.40;94315.94;4243980;27;20058;-69
2024/03/04 08:24:41;;;;;;;26.27;17.73;;;;;;;10.97;60.67;94308.38;4242674;27;20096;-70
2024/03/04 08:26:43;;;;;;;27.05;17.55;;;;;;;10.45;61.07;94304.47;4219953;28;20048;-70
2024/03/04 08:28:45;;;;;;;21.95;17.17;;;;;;;10.24;62.26;94312.84;4218728;28;20736;-71
2024/03/04 08:30:47;;;;;;;25.92;16.85;;;;;;;10.38;62.02;94313.16;4236975;27;20052;-72
2024/03/04 08:32:53;;;;;;;23.45;16.83;;;;;;;10.25;62.18;94311.03;4216607;28;20391;-71
2024/03/04 08:34:55;;;;;;;26.30;17.67;;;;;;;10.48;61.66;94305.13;4234409;27;20066;-71
2024/03/04 08:36:57;;;;;;;24.88;16.65;;;;;;;10.64;61.58;94302.44;4224796;28;20067;-73
2024/03/04 08:38:59;;;;;;;31.30;17.67;;;;;;;10.96;60.97;94308.53;4243975;27;20067;-70
2024/03/04 08:41:03;;;;;;;24.35;17.00;;;;;;;11.24;60.43;94304.47;4244716;27;20363;-70
2024/03/04 08:43:05;;;;;;;24.70;15.80;;;;;;;11.42;59.14;94298.97;4239867;27;20476;-68
2024/03/04 08:45:07;;;;;;;26.13;16.75;;;;;;;11.48;58.54;94294.81;4240336;27;20464;-69
2024/03/04 08:47:09;;;;;;;22.17;15.02;;;;;;;11.57;58.95;94298.19;4241524;27;20490;-71
2024/03/04 08:49:16;;;;;;;22.77;16.35;;;;;;;11.83;58.16;94292.56;4234682;27;20066;-69
2024/03/04 08:51:21;;;;;;;20.15;13.40;;;;;;;12.10;57.17;94296.50;4244487;27;20532;-71
2024/03/04 08:53:22;;;;;;;20.10;13.65;;;;;;;12.24;56.64;94305.41;4221998;28;20250;-70
2024/03/04 08:55:25;;;;;;;18.63;13.55;;;;;;;12.37;56.40;94296.88;4236422;27;20061;-69
2024/03/04 08:57:27;;;;;;;22.63;14.75;;;;;;;12.55;55.98;94291.28;4225100;27;20489;-72
2024/03/04 08:59:29;;;;;;;18.77;13.68;;;;;;;12.69;55.44;94285.19;4243606;27;20405;-70
2024/03/04 09:01:31;;;;;;;20.73;13.77;;;;;;;12.75;55.39;94289.72;4236011;27;20046;-73
2024/03/04 09:03:40;;;;;;;18.95;14.18;;;;;;;12.99;55.02;94283.38;4214280;28;20051;-71
2024/03/04 09:05:44;;;;;;;18.00;13.45;;;;;;;13.12;54.61;94280.09;4239409;27;20065;-73
2024/03/04 09:07:46;;;;;;;;;;;;;;;13.18;54.60;94284.59;4237214;27;20526;-71
2024/03/04 09:09:52;;;;;;;21.58;13.95;;;;;;;13.23;54.46;94278.81;4237769;27;19927;-71
2024/03/04 09:11:54;;;;;;;19.95;14.90;;;;;;;12.96;54.27;94278.47;4240145;27;20375;-71
2024/03/04 09:13:57;;;;;;;21.13;14.07;;;;;;;13.01;54.87;94281.38;4224622;28;20100;-71
2024/03/04 09:15:59;;;;;;;18.05;13.25;;;;;;;13.21;54.74;94276.34;4244323;27;20055;-70
2024/03/04 09:18:01;;;;;;;16.15;12.75;;;;;;;12.94;54.79;94274.41;4240400;27;20058;-70
2024/03/04 09:20:03;;;;;;;20.15;14.07;;;;;;;13.13;55.10;94283.53;4224980;28;20509;-70
2024/03/04 09:22:05;;;;;;;19.48;13.80;;;;;;;13.19;54.21;94282.81;4242985;27;20115;-71
2024/03/04 09:24:07;;;;;;;20.17;13.98;;;;;;;13.14;54.82;94277.25;4218024;28;20123;-70
2024/03/04 09:26:09;;;;;;;19.55;13.88;;;;;;;12.98;54.40;94283.56;4242577;27;20047;-71
2024/03/04 09:28:11;;;;;;;15.13;12.02;;;;;;;13.24;54.37;94286.50;4242801;27;20055;-70
2024/03/04 09:30:14;;;;;;;16.20;12.77;;;;;;;13.39;54.17;94278.59;4243352;27;20084;-72